createdAt,value
2023-05-14T00:00:01.449Z,10.52
2023-05-14T00:02:27.790Z,9.77
2023-05-14T00:04:54.081Z,9.57
2023-05-14T00:07:20.345Z,9.70
2023-05-14T00:09:46.577Z,9.13
2023-05-14T00:12:12.960Z,10.32
2023-05-14T00:14:39.161Z,10.85
2023-05-14T00:17:06.869Z,10.23
2023-05-14T00:19:33.085Z,10.75
2023-05-14T00:21:59.280Z,10.68
2023-05-14T00:24:25.521Z,11.07
2023-05-14T00:26:51.707Z,11.18
2023-05-14T00:29:17.911Z,10.77
2023-05-14T00:31:44.313Z,10.65
2023-05-14T00:34:10.611Z,11.45
2023-05-14T00:36:36.820Z,10.25
2023-05-14T00:39:03.761Z,11.23
2023-05-14T00:41:29.968Z,11.93
2023-05-14T00:43:56.175Z,11.48
2023-05-14T00:46:22.447Z,11.95
2023-05-14T00:48:48.807Z,12.65
2023-05-14T00:51:15.940Z,12.20
2023-05-14T00:53:42.357Z,13.80
2023-05-14T00:56:08.729Z,12.55
2023-05-14T00:58:35.084Z,11.05
2023-05-14T01:01:01.452Z,12.30
2023-05-14T01:03:28.042Z,11.73
2023-05-14T01:06:03.464Z,12.27
2023-05-14T01:08:48.198Z,11.45
2023-05-14T01:11:19.149Z,11.20
2023-05-14T01:14:02.880Z,12.27
2023-05-14T01:16:30.169Z,10.95
2023-05-14T01:18:56.890Z,11.52
2023-05-14T01:21:40.748Z,11.25
2023-05-14T01:24:07.962Z,12.10
2023-05-14T01:26:35.017Z,13.00
2023-05-14T01:29:03.794Z,12.52
2023-05-14T01:31:32.126Z,12.05
2023-05-14T01:33:59.528Z,11.75
2023-05-14T01:36:26.556Z,12.88
2023-05-14T01:38:53.548Z,13.52
2023-05-14T01:41:21.225Z,13.98
2023-05-14T01:43:47.669Z,14.07
2023-05-14T01:46:13.905Z,15.00
2023-05-14T01:48:41.287Z,14.35
2023-05-14T01:51:07.490Z,14.20
2023-05-14T01:53:34.807Z,14.98
2023-05-14T01:56:01.112Z,15.10
2023-05-14T01:58:27.343Z,15.50
2023-05-14T02:00:53.552Z,15.38
2023-05-14T02:03:19.881Z,16.10
2023-05-14T02:05:46.189Z,16.30
2023-05-14T02:08:12.455Z,15.43
2023-05-14T02:10:38.710Z,15.13
2023-05-14T02:13:04.968Z,15.02
2023-05-14T02:15:31.343Z,15.38
2023-05-14T02:17:57.641Z,14.93
2023-05-14T02:20:24.175Z,15.23
2023-05-14T02:22:50.713Z,14.70
2023-05-14T02:25:16.955Z,14.90
2023-05-14T02:27:43.256Z,16.30
2023-05-14T02:30:10.664Z,14.65
2023-05-14T02:32:37.507Z,14.63
2023-05-14T02:35:04.117Z,14.55
2023-05-14T02:37:30.461Z,14.23
2023-05-14T02:39:56.723Z,13.93
2023-05-14T02:42:22.961Z,15.02
2023-05-14T02:44:49.266Z,15.05
2023-05-14T02:47:15.510Z,13.60
2023-05-14T02:49:41.747Z,14.40
2023-05-14T02:52:07.983Z,12.73
2023-05-14T02:54:34.524Z,13.02
2023-05-14T02:57:00.739Z,14.57
2023-05-14T02:59:28.065Z,13.13
2023-05-14T03:01:54.698Z,13.38
2023-05-14T03:04:21.314Z,13.43
2023-05-14T03:06:47.589Z,13.90
2023-05-14T03:09:14.313Z,13.63
2023-05-14T03:11:40.626Z,13.70
2023-05-14T03:14:06.827Z,13.27
2023-05-14T03:16:33.166Z,12.95
2023-05-14T03:18:59.533Z,13.20
2023-05-14T03:21:26.040Z,12.35
2023-05-14T03:23:52.498Z,12.98
2023-05-14T03:26:18.817Z,13.57
2023-05-14T03:28:45.059Z,12.57
2023-05-14T03:31:11.443Z,12.48
2023-05-14T03:33:37.731Z,11.73
2023-05-14T03:36:05.343Z,12.93
2023-05-14T03:38:31.533Z,12.55
2023-05-14T03:40:57.762Z,12.48
2023-05-14T03:43:23.995Z,11.85
2023-05-14T03:45:52.463Z,11.57
2023-05-14T03:48:19.452Z,12.70
2023-05-14T03:50:46.006Z,12.43
2023-05-14T03:53:12.274Z,12.95
2023-05-14T03:55:38.471Z,12.70
2023-05-14T03:58:07.321Z,11.98
2023-05-14T04:00:33.541Z,13.38
2023-05-14T04:02:59.896Z,12.88
2023-05-14T04:05:26.314Z,13.75
2023-05-14T04:07:52.537Z,12.82
2023-05-14T04:10:18.763Z,11.10
2023-05-14T04:12:45.112Z,12.57
2023-05-14T04:15:11.537Z,12.93
2023-05-14T04:17:37.771Z,12.30
2023-05-14T04:20:04.302Z,12.05
2023-05-14T04:22:30.570Z,12.73
2023-05-14T04:24:56.777Z,13.43
2023-05-14T04:27:23.062Z,14.02
2023-05-14T04:29:49.741Z,13.35
2023-05-14T04:32:16.242Z,13.38
2023-05-14T04:34:42.475Z,14.38
2023-05-14T04:37:08.891Z,13.73
2023-05-14T04:39:35.160Z,12.25
2023-05-14T04:42:01.419Z,12.82
2023-05-14T04:44:27.635Z,12.07
2023-05-14T04:46:53.883Z,12.65
2023-05-14T04:49:20.904Z,11.73
2023-05-14T04:51:48.057Z,12.02
2023-05-14T04:54:14.297Z,13.13
2023-05-14T04:56:40.550Z,12.65
2023-05-14T04:59:06.923Z,13.13
2023-05-14T05:01:33.215Z,12.73
2023-05-14T05:03:59.531Z,12.02
2023-05-14T05:06:25.786Z,12.85
2023-05-14T05:08:51.986Z,12.60
2023-05-14T05:11:18.242Z,12.43
2023-05-14T05:13:44.438Z,12.32
2023-05-14T05:16:10.728Z,13.10
2023-05-14T05:18:37.086Z,12.70
2023-05-14T05:21:03.371Z,12.20
2023-05-14T05:23:29.684Z,12.18
2023-05-14T05:25:55.952Z,12.00
2023-05-14T05:28:22.226Z,12.00
2023-05-14T05:30:48.438Z,11.15
2023-05-14T05:33:14.678Z,11.95
2023-05-14T05:35:41.671Z,10.98
2023-05-14T05:38:07.902Z,11.38
2023-05-14T05:40:34.168Z,11.40
2023-05-14T05:43:00.430Z,10.60
2023-05-14T05:45:26.746Z,11.27
2023-05-14T05:47:53.011Z,10.63
2023-05-14T05:50:19.966Z,11.15
2023-05-14T05:52:46.443Z,12.15
2023-05-14T05:55:12.671Z,12.32
2023-05-14T05:57:38.948Z,12.23
2023-05-14T06:00:14.297Z,11.88
2023-05-14T06:02:41.630Z,12.88
2023-05-14T06:05:08.647Z,12.95
2023-05-14T06:07:34.991Z,14.07
2023-05-14T06:10:01.410Z,14.60
2023-05-14T06:12:27.635Z,15.68
2023-05-14T06:14:55.323Z,17.42
2023-05-14T06:17:21.615Z,17.08
2023-05-14T06:19:47.854Z,16.50
2023-05-14T06:22:14.746Z,15.63
2023-05-14T06:24:40.961Z,14.90
2023-05-14T06:27:07.218Z,13.52
2023-05-14T06:29:33.486Z,14.85
2023-05-14T06:32:03.621Z,15.35
2023-05-14T06:34:30.698Z,15.50
2023-05-14T06:36:57.449Z,16.08
2023-05-14T06:39:24.277Z,15.63
2023-05-14T06:41:50.575Z,14.30
2023-05-14T06:44:18.223Z,14.35
2023-05-14T06:46:44.442Z,13.20
2023-05-14T06:49:10.753Z,13.20
2023-05-14T06:51:38.885Z,13.40
2023-05-14T06:54:05.143Z,13.73
2023-05-14T06:56:31.337Z,12.88
2023-05-14T06:58:58.020Z,13.30
2023-05-14T07:01:24.294Z,14.43
2023-05-14T07:03:50.588Z,13.32
2023-05-14T07:06:16.894Z,12.93
2023-05-14T07:08:45.801Z,11.43
2023-05-14T07:11:13.358Z,11.90
2023-05-14T07:13:39.946Z,11.70
2023-05-14T07:16:07.106Z,11.20
2023-05-14T07:18:33.413Z,12.02
2023-05-14T07:20:59.708Z,11.57
2023-05-14T07:23:26.092Z,10.63
2023-05-14T07:25:52.334Z,11.00
2023-05-14T07:28:18.516Z,10.60
2023-05-14T07:30:44.742Z,10.60
2023-05-14T07:33:11.089Z,10.60
2023-05-14T07:35:37.381Z,9.90
2023-05-14T07:38:05.516Z,10.98
2023-05-14T07:40:31.745Z,9.57
2023-05-14T07:42:58.006Z,9.73
2023-05-14T07:45:24.216Z,8.25
2023-05-14T07:47:51.882Z,9.32
2023-05-14T07:50:18.927Z,8.55
2023-05-14T07:52:45.445Z,8.43
2023-05-14T07:55:12.254Z,9.05
2023-05-14T07:57:38.627Z,8.13
2023-05-14T08:00:09.132Z,8.43
2023-05-14T08:02:35.410Z,8.07
2023-05-14T08:05:01.707Z,7.07
2023-05-14T08:07:29.937Z,9.02
2023-05-14T08:09:56.212Z,8.20
2023-05-14T08:12:22.556Z,8.38
2023-05-14T08:14:48.785Z,8.55
2023-05-14T08:17:15.217Z,8.73
2023-05-14T08:19:41.566Z,8.40
2023-05-14T08:22:08.005Z,8.50
2023-05-14T08:24:34.679Z,8.68
2023-05-14T08:27:02.118Z,9.20
2023-05-14T08:29:28.418Z,9.13
2023-05-14T08:31:54.618Z,8.65
2023-05-14T08:34:20.944Z,8.95
2023-05-14T08:36:47.169Z,8.13
2023-05-14T08:39:13.668Z,7.80
2023-05-14T08:41:40.285Z,8.48
2023-05-14T08:44:07.072Z,7.70
2023-05-14T08:46:33.612Z,7.70
2023-05-14T08:49:08.718Z,7.15
2023-05-14T08:51:35.634Z,6.38
2023-05-14T08:54:02.705Z,6.78
2023-05-14T08:56:32.013Z,6.10
2023-05-14T08:58:58.298Z,6.95
2023-05-14T09:01:25.431Z,6.53
2023-05-14T09:03:52.627Z,7.13
2023-05-14T09:06:19.046Z,6.65
2023-05-14T09:08:46.131Z,6.28
2023-05-14T09:11:12.408Z,6.07
2023-05-14T09:13:38.701Z,6.10
2023-05-14T09:16:05.503Z,7.00
2023-05-14T09:18:31.941Z,6.55
2023-05-14T09:20:58.190Z,6.32
2023-05-14T09:23:27.246Z,6.63
2023-05-14T09:25:53.466Z,6.28
2023-05-14T09:28:21.107Z,6.25
2023-05-14T09:30:51.471Z,6.43
2023-05-14T09:33:25.874Z,6.55
2023-05-14T09:35:52.066Z,5.63
2023-05-14T09:38:18.292Z,6.00
2023-05-14T09:40:45.689Z,6.03
2023-05-14T09:43:11.894Z,5.85
2023-05-14T09:45:38.174Z,6.03
2023-05-14T09:48:04.689Z,6.05
2023-05-14T09:50:31.074Z,6.72
2023-05-14T09:52:58.709Z,6.63
2023-05-14T09:55:25.817Z,5.75
2023-05-14T09:57:52.070Z,7.32
2023-05-14T10:00:18.664Z,5.88
2023-05-14T10:02:45.753Z,5.97
2023-05-14T10:05:13.364Z,6.28
2023-05-14T10:07:42.686Z,6.80
2023-05-14T10:10:13.536Z,6.40
2023-05-14T10:12:40.369Z,6.82
2023-05-14T10:15:13.574Z,6.70
2023-05-14T10:17:40.869Z,6.05
2023-05-14T10:20:09.256Z,6.28
2023-05-14T10:22:35.668Z,5.97
2023-05-14T10:25:03.002Z,6.18
2023-05-14T10:27:29.693Z,6.18
2023-05-14T10:29:56.145Z,6.18
2023-05-14T10:32:25.069Z,6.10
2023-05-14T10:34:52.062Z,5.15
2023-05-14T10:37:19.506Z,5.45
2023-05-14T10:39:58.892Z,5.18
2023-05-14T10:42:33.117Z,5.57
2023-05-14T10:45:07.096Z,6.00
2023-05-14T10:47:35.292Z,5.03
2023-05-14T10:50:03.168Z,5.78
2023-05-14T10:52:29.828Z,5.57
2023-05-14T10:54:56.974Z,6.95
2023-05-14T10:57:24.616Z,6.57
2023-05-14T10:59:54.617Z,7.25
2023-05-14T11:02:22.699Z,7.85
2023-05-14T11:05:04.990Z,8.52
2023-05-14T11:07:34.976Z,7.20
2023-05-14T11:10:11.282Z,8.02
2023-05-14T11:12:38.456Z,7.35
2023-05-14T11:15:06.715Z,7.78
2023-05-14T11:17:34.665Z,7.72
2023-05-14T11:20:00.922Z,7.60
2023-05-14T11:22:27.208Z,7.97
2023-05-14T11:24:53.688Z,7.43
2023-05-14T11:27:21.339Z,7.57
2023-05-14T11:29:48.291Z,7.72
2023-05-14T11:32:15.514Z,7.03
2023-05-14T11:34:42.310Z,7.43
2023-05-14T11:37:09.142Z,7.10
2023-05-14T11:39:38.630Z,7.88
2023-05-14T11:42:09.499Z,6.60
2023-05-14T11:44:36.686Z,6.03
2023-05-14T11:47:04.846Z,6.30
2023-05-14T11:49:31.808Z,6.20
2023-05-14T11:51:58.222Z,5.88
2023-05-14T11:54:30.734Z,6.05
2023-05-14T11:56:57.452Z,6.55
2023-05-14T11:59:31.640Z,6.63
2023-05-14T12:01:58.564Z,6.30
2023-05-14T12:04:25.097Z,5.93
2023-05-14T12:06:54.194Z,6.57
2023-05-14T12:09:21.169Z,5.53
2023-05-14T12:11:47.899Z,5.43
2023-05-14T12:14:21.562Z,6.40
2023-05-14T12:16:48.569Z,5.30
2023-05-14T12:19:15.776Z,5.45
2023-05-14T12:21:45.501Z,4.78
2023-05-14T12:24:12.290Z,5.53
2023-05-14T12:26:38.908Z,5.43
2023-05-14T12:29:06.854Z,4.60
2023-05-14T12:31:36.404Z,4.57
2023-05-14T12:34:03.474Z,4.68
2023-05-14T12:36:32.350Z,4.43
2023-05-14T12:39:00.542Z,5.03
2023-05-14T12:41:26.835Z,5.05
2023-05-14T12:43:53.033Z,4.75
2023-05-14T12:46:19.228Z,6.35
2023-05-14T12:48:46.248Z,5.20
2023-05-14T12:51:12.622Z,4.60
2023-05-14T12:53:38.840Z,4.78
2023-05-14T12:56:05.515Z,4.03
2023-05-14T12:58:31.816Z,5.10
2023-05-14T13:00:58.009Z,5.00
2023-05-14T13:03:24.282Z,3.60
2023-05-14T13:05:51.752Z,3.50
2023-05-14T13:08:18.251Z,4.75
2023-05-14T13:10:44.681Z,6.20
2023-05-14T13:13:11.578Z,4.70
2023-05-14T13:15:37.950Z,4.20
2023-05-14T13:18:04.658Z,4.00
2023-05-14T13:20:31.129Z,3.85
2023-05-14T13:22:57.365Z,3.80
2023-05-14T13:25:23.703Z,3.70
2023-05-14T13:27:53.090Z,3.45
2023-05-14T13:30:19.494Z,3.55
2023-05-14T13:32:45.853Z,2.95
2023-05-14T13:35:12.483Z,4.03
2023-05-14T13:37:38.685Z,4.10
2023-05-14T13:40:08.182Z,4.60
2023-05-14T13:42:34.730Z,4.55
2023-05-14T13:45:01.127Z,4.30
2023-05-14T13:47:28.099Z,3.88
2023-05-14T13:49:54.769Z,4.40
2023-05-14T13:52:21.515Z,4.45
2023-05-14T13:54:47.848Z,4.28
2023-05-14T13:57:14.350Z,3.67
2023-05-14T13:59:40.760Z,4.00
2023-05-14T14:02:07.541Z,3.50
2023-05-14T14:04:33.899Z,3.20
2023-05-14T14:07:00.334Z,3.10
2023-05-14T14:09:26.708Z,3.22
2023-05-14T14:11:52.948Z,3.72
2023-05-14T14:14:19.182Z,3.47
2023-05-14T14:16:45.493Z,3.20
2023-05-14T14:19:11.870Z,3.20
2023-05-14T14:21:39.666Z,3.00
2023-05-14T14:24:06.112Z,2.97
2023-05-14T14:26:32.310Z,3.00
2023-05-14T14:28:58.616Z,3.25
2023-05-14T14:31:25.078Z,2.80
2023-05-14T14:33:51.323Z,3.15
2023-05-14T14:36:17.582Z,3.67
2023-05-14T14:38:43.770Z,4.03
2023-05-14T14:41:10.190Z,5.22
2023-05-14T14:43:37.159Z,3.42
2023-05-14T14:46:04.000Z,3.28
2023-05-14T14:48:31.726Z,3.40
2023-05-14T14:50:58.140Z,14.63
2023-05-14T14:53:24.774Z,5.82
2023-05-14T14:55:51.558Z,4.57
2023-05-14T14:58:18.722Z,4.32
2023-05-14T15:00:45.612Z,3.55
2023-05-14T15:03:12.081Z,3.60
2023-05-14T15:05:38.476Z,3.10
2023-05-14T15:08:04.883Z,3.42
2023-05-14T15:10:31.698Z,3.42
2023-05-14T15:12:59.003Z,3.25
2023-05-14T15:15:26.027Z,3.70
2023-05-14T15:17:52.441Z,3.45
2023-05-14T15:20:18.790Z,3.00
2023-05-14T15:22:45.187Z,3.20
2023-05-14T15:25:11.411Z,3.20
2023-05-14T15:27:37.724Z,3.22
2023-05-14T15:30:04.619Z,3.08
2023-05-14T15:32:30.892Z,2.97
2023-05-14T15:34:57.105Z,3.45
2023-05-14T15:37:23.926Z,3.20
2023-05-14T15:39:50.329Z,3.33
2023-05-14T15:42:16.599Z,3.30
2023-05-14T15:44:42.824Z,3.45
2023-05-14T15:47:09.093Z,3.33
2023-05-14T15:49:35.362Z,3.42
2023-05-14T15:52:02.716Z,3.35
2023-05-14T15:54:29.225Z,3.67
2023-05-14T15:56:56.102Z,3.58
2023-05-14T15:59:22.398Z,3.40
2023-05-14T16:01:50.031Z,3.45
2023-05-14T16:04:16.277Z,3.22
2023-05-14T16:06:44.698Z,3.30
2023-05-14T16:09:11.198Z,3.20
2023-05-14T16:11:37.408Z,3.40
2023-05-14T16:14:03.664Z,3.40
2023-05-14T16:16:30.254Z,3.03
2023-05-14T16:18:56.580Z,2.72
2023-05-14T16:21:22.821Z,2.90
2023-05-14T16:23:49.040Z,2.85
2023-05-14T16:26:15.301Z,3.50
2023-05-14T16:28:42.629Z,2.97
2023-05-14T16:31:09.060Z,3.17
2023-05-14T16:33:35.706Z,2.88
2023-05-14T16:36:01.963Z,3.05
2023-05-14T16:38:28.240Z,2.90
2023-05-14T16:40:54.453Z,2.90
2023-05-14T16:43:20.793Z,3.10
2023-05-14T16:45:47.060Z,2.75
2023-05-14T16:48:13.586Z,3.08
2023-05-14T16:50:39.909Z,2.90
2023-05-14T16:53:06.166Z,2.75
2023-05-14T16:55:32.383Z,3.40
2023-05-14T16:57:58.651Z,4.28
2023-05-14T17:00:24.896Z,3.58
2023-05-14T17:02:53.943Z,3.05
2023-05-14T17:05:20.730Z,3.20
2023-05-14T17:07:46.943Z,2.70
2023-05-14T17:10:13.274Z,2.80
2023-05-14T17:12:39.501Z,3.03
2023-05-14T17:15:06.575Z,3.47
2023-05-14T17:17:33.725Z,3.58
2023-05-14T17:20:00.816Z,3.28
2023-05-14T17:22:27.228Z,3.10
2023-05-14T17:24:53.433Z,3.15
2023-05-14T17:27:19.621Z,3.40
2023-05-14T17:29:45.839Z,4.60
2023-05-14T17:32:12.084Z,3.20
2023-05-14T17:34:38.321Z,5.28
2023-05-14T17:37:04.642Z,3.78
2023-05-14T17:39:30.878Z,3.47
2023-05-14T17:41:57.100Z,3.92
2023-05-14T17:44:23.316Z,3.80
2023-05-14T17:46:49.834Z,3.78
2023-05-14T17:49:16.191Z,4.20
2023-05-14T17:51:43.518Z,3.70
2023-05-14T17:54:09.747Z,3.65
2023-05-14T17:56:36.351Z,4.10
2023-05-14T17:59:02.622Z,4.10
2023-05-14T18:01:28.906Z,3.63
2023-05-14T18:03:55.168Z,4.03
2023-05-14T18:06:21.477Z,3.90
2023-05-14T18:08:47.764Z,3.47
2023-05-14T18:11:13.995Z,4.25
2023-05-14T18:13:40.227Z,3.45
2023-05-14T18:16:06.543Z,4.50
2023-05-14T18:18:32.910Z,4.18
2023-05-14T18:20:59.224Z,4.50
2023-05-14T18:23:25.436Z,4.55
2023-05-14T18:25:51.986Z,4.35
2023-05-14T18:28:19.181Z,4.50
2023-05-14T18:30:45.542Z,4.47
2023-05-14T18:33:11.982Z,5.38
2023-05-14T18:35:38.276Z,4.40
2023-05-14T18:38:04.537Z,4.22
2023-05-14T18:40:30.797Z,4.38
2023-05-14T18:42:57.955Z,4.63
2023-05-14T18:45:24.600Z,4.65
2023-05-14T18:47:51.488Z,5.40
2023-05-14T18:50:17.804Z,4.68
2023-05-14T18:52:44.062Z,4.60
2023-05-14T18:55:10.424Z,4.63
2023-05-14T18:57:36.839Z,5.32
2023-05-14T19:00:03.941Z,5.13
2023-05-14T19:02:30.359Z,5.03
2023-05-14T19:04:56.763Z,4.75
2023-05-14T19:07:23.040Z,4.72
2023-05-14T19:09:49.264Z,4.63
2023-05-14T19:12:15.969Z,4.63
2023-05-14T19:14:42.248Z,4.43
2023-05-14T19:17:08.536Z,4.82
2023-05-14T19:19:34.765Z,4.55
2023-05-14T19:22:00.999Z,4.78
2023-05-14T19:24:27.224Z,4.93
2023-05-14T19:26:53.492Z,5.15
2023-05-14T19:29:19.755Z,4.68
2023-05-14T19:31:46.883Z,4.70
2023-05-14T19:34:13.096Z,4.85
2023-05-14T19:36:39.373Z,5.13
2023-05-14T19:39:05.836Z,5.10
2023-05-14T19:41:32.069Z,5.75
2023-05-14T19:43:58.264Z,5.60
2023-05-14T19:46:24.575Z,4.88
2023-05-14T19:48:50.823Z,4.38
2023-05-14T19:51:17.018Z,4.53
2023-05-14T19:53:43.284Z,4.07
2023-05-14T19:56:09.513Z,3.90
2023-05-14T19:58:35.788Z,3.85
2023-05-14T20:01:02.104Z,3.60
2023-05-14T20:03:28.427Z,3.80
2023-05-14T20:05:55.041Z,3.90
2023-05-14T20:08:21.533Z,3.75
2023-05-14T20:10:48.021Z,3.67
2023-05-14T20:13:14.286Z,3.47
2023-05-14T20:15:40.710Z,3.58
2023-05-14T20:18:07.139Z,3.63
2023-05-14T20:20:34.053Z,4.00
2023-05-14T20:23:00.425Z,3.42
2023-05-14T20:25:28.346Z,3.20
2023-05-14T20:27:55.000Z,3.03
2023-05-14T20:30:21.190Z,3.92
2023-05-14T20:32:47.453Z,3.40
2023-05-14T20:35:13.712Z,3.13
2023-05-14T20:37:40.318Z,4.25
2023-05-14T20:40:07.604Z,3.92
2023-05-14T20:42:34.988Z,2.97
2023-05-14T20:45:01.171Z,2.60
2023-05-14T20:47:30.423Z,2.60
2023-05-14T20:49:56.706Z,3.10
2023-05-14T20:52:23.032Z,2.50
2023-05-14T20:54:49.437Z,2.53
2023-05-14T20:57:15.933Z,2.45
2023-05-14T20:59:42.501Z,2.50
2023-05-14T21:02:08.865Z,2.55
2023-05-14T21:04:35.481Z,2.85
2023-05-14T21:07:02.614Z,2.40
2023-05-14T21:09:28.840Z,2.25
2023-05-14T21:11:55.094Z,2.28
2023-05-14T21:14:21.380Z,2.17
2023-05-14T21:16:47.769Z,2.25
2023-05-14T21:19:15.448Z,2.25
2023-05-14T21:21:42.048Z,2.25
2023-05-14T21:24:08.459Z,2.55
2023-05-14T21:26:36.760Z,2.45
2023-05-14T21:29:03.290Z,2.40
2023-05-14T21:31:29.512Z,2.20
2023-05-14T21:33:55.840Z,2.47
2023-05-14T21:36:22.247Z,2.72
2023-05-14T21:38:48.499Z,2.38
2023-05-14T21:41:14.836Z,2.30
2023-05-14T21:43:41.036Z,2.42
2023-05-14T21:46:07.647Z,2.70
2023-05-14T21:48:33.967Z,2.60
2023-05-14T21:51:00.692Z,2.60
2023-05-14T21:53:26.897Z,2.22
2023-05-14T21:55:53.373Z,2.50
2023-05-14T21:58:19.597Z,2.42
2023-05-14T22:00:45.890Z,2.97
2023-05-14T22:03:12.233Z,2.50
2023-05-14T22:05:38.577Z,2.40
2023-05-14T22:08:04.944Z,2.60
2023-05-14T22:10:31.291Z,3.03
2023-05-14T22:12:57.506Z,2.90
2023-05-14T22:15:23.840Z,2.63
2023-05-14T22:17:50.255Z,3.00
2023-05-14T22:20:16.706Z,3.08
2023-05-14T22:22:42.952Z,2.97
2023-05-14T22:25:09.414Z,2.97
2023-05-14T22:27:35.638Z,2.67
2023-05-14T22:30:01.921Z,3.03
2023-05-14T22:32:28.203Z,2.85
2023-05-14T22:34:54.582Z,3.20
2023-05-14T22:37:20.896Z,2.90
2023-05-14T22:39:47.176Z,3.50
2023-05-14T22:42:13.425Z,3.05
2023-05-14T22:44:39.628Z,2.85
2023-05-14T22:47:06.004Z,3.25
2023-05-14T22:49:32.224Z,2.80
2023-05-14T22:51:58.540Z,3.13
2023-05-14T22:54:24.741Z,3.20
2023-05-14T22:56:51.445Z,3.45
2023-05-14T22:59:17.638Z,3.33
2023-05-14T23:01:44.060Z,3.40
2023-05-14T23:04:10.308Z,3.70
2023-05-14T23:06:37.087Z,4.15
2023-05-14T23:09:03.319Z,4.68
2023-05-14T23:11:29.575Z,4.82
2023-05-14T23:13:55.848Z,5.13
2023-05-14T23:16:22.221Z,5.68
2023-05-14T23:18:48.523Z,6.88
2023-05-14T23:21:15.088Z,6.05
2023-05-14T23:23:41.328Z,6.78
2023-05-14T23:26:07.575Z,6.97
2023-05-14T23:28:33.768Z,7.30
2023-05-14T23:31:00.091Z,8.10
2023-05-14T23:33:26.573Z,7.65
2023-05-14T23:35:52.953Z,7.90
2023-05-14T23:38:19.450Z,8.48
2023-05-14T23:40:45.669Z,7.78
2023-05-14T23:43:11.923Z,8.63
2023-05-14T23:45:38.223Z,8.45
2023-05-14T23:48:04.719Z,9.35
2023-05-14T23:50:31.421Z,8.70
2023-05-14T23:52:57.670Z,9.50
2023-05-14T23:55:24.028Z,9.77
2023-05-14T23:57:50.369Z,8.70
